Time;durP1;ratioP1;P1;durP2;ratioP2;P2;SDS_P1;SDS_P2;PMS_P1;PMS_P2;Temp;Humidity;BMP_temperature;BMP_pressure;BME280_temperature;BME280_humidity;BME280_pressure;Samples;Min_cycle;Max_cycle;Signal;HPM_P1;HPM_P2
2021/12/07 00:01:25;;;;;;;25.20;14.20;;;;;;;;;;6310778;28;20048;-67
2021/12/07 00:04:31;;;;;;;24.85;13.18;;;;;;;;;;6309957;28;20047;-67
2021/12/07 00:07:34;;;;;;;27.48;13.38;;;;;;;;;;6308554;28;20048;-67
2021/12/07 00:10:41;;;;;;;27.23;13.48;;;;;;;;;;6309203;28;20114;-67
2021/12/07 00:13:44;;;;;;;29.77;14.75;;;;;;;;;;6307943;28;20048;-68
2021/12/07 00:16:47;;;;;;;24.77;13.63;;;;;;;;;;6307776;28;20052;-67
2021/12/07 00:19:50;;;;;;;24.63;13.40;;;;;;;;;;6310290;28;20044;-67
2021/12/07 00:22:55;;;;;;;26.05;13.40;;;;;;;;;;6309428;28;20087;-67
2021/12/07 00:26:00;;;;;;;29.13;14.15;;;;;;;;;;6308538;28;20059;-67
2021/12/07 00:29:04;;;;;;;27.60;13.88;;;;;;;;;;6306828;28;20052;-67
2021/12/07 00:32:20;;;;;;;26.40;13.60;;;;;;;;;;6306747;28;20052;-67
2021/12/07 00:35:34;;;;;;;26.45;13.15;;;;;;;;;;6292133;28;20037;-67
2021/12/07 00:38:37;;;;;;;26.92;14.20;;;;;;;;;;6291219;28;20498;-67
2021/12/07 00:41:42;;;;;;;28.13;15.25;;;;;;;;;;6291164;28;20051;-67
2021/12/07 00:44:45;;;;;;;29.70;14.43;;;;;;;;;;6290555;28;20045;-67
2021/12/07 00:47:49;;;;;;;27.85;13.52;;;;;;;;;;6275870;28;20058;-67
2021/12/07 00:50:54;;;;;;;31.08;14.80;;;;;;;;;;6292304;28;20052;-67
2021/12/07 00:54:00;;;;;;;30.85;16.20;;;;;;;;;;6294263;28;20049;-67
2021/12/07 00:57:05;;;;;;;25.50;13.55;;;;;;;;;;6295685;28;20051;-67
2021/12/07 01:00:15;;;;;;;26.85;13.52;;;;;;;;;;6295431;28;20107;-67
2021/12/07 01:03:19;;;;;;;29.60;13.67;;;;;;;;;;6296843;28;20079;-68
2021/12/07 01:06:27;;;;;;;28.15;14.20;;;;;;;;;;6297543;28;20052;-67
2021/12/07 01:09:37;;;;;;;28.30;14.07;;;;;;;;;;6297121;28;20052;-67
2021/12/07 01:26:05;;;;;;;31.70;15.48;;;;;;;;;;6293270;28;20110;-67
2021/12/07 01:29:09;;;;;;;30.95;14.85;;;;;;;;;;6294346;28;20048;-67
2021/12/07 01:32:34;;;;;;;29.90;15.18;;;;;;;;;;6294833;28;20113;-67
2021/12/07 01:46:11;;;;;;;27.73;15.05;;;;;;;;;;6292080;28;20048;-67
2021/12/07 01:52:56;;;;;;;29.45;14.27;;;;;;;;;;6270197;28;20169;-67
2021/12/07 01:59:35;;;;;;;30.40;13.73;;;;;;;;;;6293151;28;20071;-66
2021/12/07 02:02:41;;;;;;;28.20;14.25;;;;;;;;;;6292604;28;20044;-67
2021/12/07 02:05:45;;;;;;;28.83;15.55;;;;;;;;;;6293903;28;20075;-66
2021/12/07 02:08:48;;;;;;;27.48;14.35;;;;;;;;;;6293720;28;20048;-66
2021/12/07 02:11:58;;;;;;;31.00;15.18;;;;;;;;;;6291896;28;20060;-66
2021/12/07 02:15:02;;;;;;;33.13;16.50;;;;;;;;;;6293140;28;20059;-67
2021/12/07 02:18:06;;;;;;;30.05;15.07;;;;;;;;;;6293693;28;20048;-67
2021/12/07 02:21:15;;;;;;;30.35;14.45;;;;;;;;;;6291562;28;20072;-66
2021/12/07 02:24:19;;;;;;;31.45;15.30;;;;;;;;;;6292417;28;20053;-67
2021/12/07 02:27:23;;;;;;;27.85;15.45;;;;;;;;;;6293302;28;20040;-66
2021/12/07 02:30:26;;;;;;;29.65;15.57;;;;;;;;;;6292831;28;20045;-66
2021/12/07 02:33:31;;;;;;;29.90;14.80;;;;;;;;;;6292788;28;20048;-66
2021/12/07 02:36:37;;;;;;;31.15;15.95;;;;;;;;;;6292560;28;20465;-66
2021/12/07 02:39:44;;;;;;;31.35;16.33;;;;;;;;;;6291355;28;20047;-66
2021/12/07 02:42:49;;;;;;;29.33;15.38;;;;;;;;;;6292775;28;20052;-66
2021/12/07 02:45:53;;;;;;;31.02;15.20;;;;;;;;;;6291616;28;20044;-66
2021/12/07 02:48:57;;;;;;;30.02;13.95;;;;;;;;;;6292102;28;20086;-66
2021/12/07 02:52:02;;;;;;;31.50;15.13;;;;;;;;;;6292583;28;20047;-66
2021/12/07 02:55:11;;;;;;;31.45;16.65;;;;;;;;;;6292552;28;20045;-66
2021/12/07 02:58:14;;;;;;;31.58;15.75;;;;;;;;;;6291955;28;20052;-66
2021/12/07 03:01:22;;;;;;;30.00;15.18;;;;;;;;;;6290882;28;20044;-66
2021/12/07 03:04:34;;;;;;;31.75;16.20;;;;;;;;;;6292513;28;20516;-66
2021/12/07 03:08:06;;;;;;;31.17;16.17;;;;;;;;;;6292989;28;20387;-66
2021/12/07 03:28:12;;;;;;;31.38;15.52;;;;;;;;;;6291665;28;20479;-66
2021/12/07 03:31:16;;;;;;;33.38;17.23;;;;;;;;;;6292010;28;20143;-67
2021/12/07 03:34:23;;;;;;;30.38;15.43;;;;;;;;;;6292069;28;20052;-66
2021/12/07 03:37:27;;;;;;;29.02;15.07;;;;;;;;;;6291255;28;20076;-67
2021/12/07 03:40:32;;;;;;;31.60;15.82;;;;;;;;;;6291027;28;20048;-67
2021/12/07 03:43:37;;;;;;;30.73;15.70;;;;;;;;;;6291730;28;20048;-66
2021/12/07 03:46:41;;;;;;;29.83;14.93;;;;;;;;;;6290898;28;20055;-66
2021/12/07 03:49:47;;;;;;;;;;;;;;;;;;6291700;28;20057;-66
2021/12/07 03:52:51;;;;;;;31.33;16.00;;;;;;;;;;6291831;28;19921;-66
2021/12/07 03:55:57;;;;;;;30.35;15.88;;;;;;;;;;6290423;28;20048;-66
2021/12/07 03:59:02;;;;;;;32.25;16.48;;;;;;;;;;6291015;28;20471;-66
2021/12/07 04:02:08;;;;;;;;;;;;;;;;;;6291676;28;20044;-66
2021/12/07 04:05:15;;;;;;;32.88;16.48;;;;;;;;;;6290277;28;19928;-66
2021/12/07 04:08:24;;;;;;;31.92;15.52;;;;;;;;;;6292608;28;20108;-66
2021/12/07 04:11:33;;;;;;;32.47;16.08;;;;;;;;;;6295712;28;20048;-67
2021/12/07 04:14:37;;;;;;;33.30;17.50;;;;;;;;;;6295362;28;20044;-67
2021/12/07 04:17:40;;;;;;;33.90;17.38;;;;;;;;;;6296138;28;20041;-67
2021/12/07 04:20:48;;;;;;;35.88;17.05;;;;;;;;;;6295253;28;20045;-67
2021/12/07 04:23:51;;;;;;;33.72;17.80;;;;;;;;;;6295193;28;20102;-66
2021/12/07 04:26:56;;;;;;;34.10;17.70;;;;;;;;;;6296298;28;20045;-67
2021/12/07 04:29:59;;;;;;;37.97;18.23;;;;;;;;;;6296008;28;20056;-66
2021/12/07 04:33:05;;;;;;;32.85;17.65;;;;;;;;;;6295052;28;20073;-66
2021/12/07 04:36:10;;;;;;;44.03;19.73;;;;;;;;;;6295485;28;20706;-67
2021/12/07 04:39:14;;;;;;;34.25;17.13;;;;;;;;;;6294772;28;20045;-67
2021/12/07 04:42:18;;;;;;;39.47;17.95;;;;;;;;;;6296369;28;20056;-67
2021/12/07 04:45:32;;;;;;;36.42;17.73;;;;;;;;;;6295714;28;20175;-66
2021/12/07 04:49:07;;;;;;;36.25;18.02;;;;;;;;;;6294215;28;20127;-66
2021/12/07 04:59:02;;;;;;;35.83;17.33;;;;;;;;;;6248213;28;20072;-66
2021/12/07 05:02:05;;;;;;;34.53;17.10;;;;;;;;;;6296316;28;20045;-66
2021/12/07 05:05:11;;;;;;;35.65;17.40;;;;;;;;;;6296390;28;20052;-67
2021/12/07 05:08:18;;;;;;;34.65;17.20;;;;;;;;;;6297030;28;20041;-66
2021/12/07 05:11:46;;;;;;;29.88;15.80;;;;;;;;;;6296411;28;20048;-66
2021/12/07 05:15:01;;;;;;;31.50;16.60;;;;;;;;;;6296349;28;20049;-66
2021/12/07 05:18:23;;;;;;;33.67;16.90;;;;;;;;;;6295991;28;20048;-67
2021/12/07 05:25:07;;;;;;;32.70;16.35;;;;;;;;;;6296637;28;20045;-67
2021/12/07 05:38:13;;;;;;;32.53;15.55;;;;;;;;;;6294678;28;20057;-66
2021/12/07 05:41:16;;;;;;;32.45;16.33;;;;;;;;;;6294088;28;20040;-66
2021/12/07 05:44:22;;;;;;;26.75;15.18;;;;;;;;;;6296211;28;20048;-66
2021/12/07 05:47:26;;;;;;;33.38;16.73;;;;;;;;;;6295867;28;20048;-66
2021/12/07 05:50:31;;;;;;;34.85;16.45;;;;;;;;;;6295576;28;20068;-66
2021/12/07 05:53:35;;;;;;;30.77;15.52;;;;;;;;;;6293869;28;20052;-66
2021/12/07 05:56:40;;;;;;;31.85;16.20;;;;;;;;;;6295305;28;20053;-68
2021/12/07 05:59:43;;;;;;;33.90;16.08;;;;;;;;;;6295591;28;20044;-66
2021/12/07 06:02:47;;;;;;;31.25;14.90;;;;;;;;;;6294937;28;20049;-66
2021/12/07 06:05:51;;;;;;;32.10;15.82;;;;;;;;;;6293437;28;20052;-67
2021/12/07 06:08:54;;;;;;;32.10;15.10;;;;;;;;;;6295351;28;20044;-66
2021/12/07 06:11:58;;;;;;;33.10;16.17;;;;;;;;;;6294722;28;20041;-67
2021/12/07 06:15:01;;;;;;;30.38;15.50;;;;;;;;;;6294620;28;20049;-67
2021/12/07 06:18:06;;;;;;;32.50;15.88;;;;;;;;;;6277657;28;20139;-67
2021/12/07 06:21:12;;;;;;;35.03;16.23;;;;;;;;;;6294648;28;20067;-67
2021/12/07 06:24:15;;;;;;;32.88;16.63;;;;;;;;;;6294497;28;20044;-67
2021/12/07 06:27:21;;;;;;;31.92;15.60;;;;;;;;;;6294349;28;20041;-67
2021/12/07 06:30:24;;;;;;;32.45;14.23;;;;;;;;;;6294361;28;20059;-67
2021/12/07 06:33:29;;;;;;;33.15;15.25;;;;;;;;;;6292996;28;20115;-66
2021/12/07 06:36:33;;;;;;;32.28;15.90;;;;;;;;;;6292981;28;20052;-67
2021/12/07 06:39:36;;;;;;;30.75;14.60;;;;;;;;;;6293148;28;20047;-66
2021/12/07 06:42:41;;;;;;;30.85;14.85;;;;;;;;;;6292882;28;20049;-67
2021/12/07 06:45:44;;;;;;;32.30;14.63;;;;;;;;;;6292709;28;20037;-66
2021/12/07 06:48:49;;;;;;;30.60;14.95;;;;;;;;;;6292729;28;20134;-67
2021/12/07 06:51:53;;;;;;;34.30;15.98;;;;;;;;;;6293062;28;20052;-67
2021/12/07 06:54:57;;;;;;;32.67;14.68;;;;;;;;;;6292460;28;20040;-67
2021/12/07 06:58:00;;;;;;;32.05;15.10;;;;;;;;;;6292335;28;20049;-67
2021/12/07 07:01:06;;;;;;;30.42;15.05;;;;;;;;;;6294347;28;20555;-67
2021/12/07 07:04:14;;;;;;;32.20;15.50;;;;;;;;;;6292455;28;20041;-68
2021/12/07 07:07:22;;;;;;;31.95;15.68;;;;;;;;;;6292507;28;20044;-67
2021/12/07 07:10:25;;;;;;;36.42;16.90;;;;;;;;;;6293650;28;20045;-67
2021/12/07 07:13:29;;;;;;;30.70;15.32;;;;;;;;;;6294102;28;20056;-67
2021/12/07 07:16:33;;;;;;;32.00;15.23;;;;;;;;;;6293560;28;20049;-67
2021/12/07 07:19:37;;;;;;;30.73;15.88;;;;;;;;;;6293430;28;20055;-67
2021/12/07 07:22:41;;;;;;;36.45;16.95;;;;;;;;;;6294194;28;20063;-67
2021/12/07 07:25:44;;;;;;;36.72;16.77;;;;;;;;;;6293664;28;20059;-67
2021/12/07 07:28:50;;;;;;;32.30;15.75;;;;;;;;;;6292266;28;20059;-67
2021/12/07 07:31:54;;;;;;;35.78;17.23;;;;;;;;;;6293605;28;20049;-67
2021/12/07 07:34:58;;;;;;;33.35;16.05;;;;;;;;;;6293715;28;20123;-67
2021/12/07 07:38:02;;;;;;;30.00;15.57;;;;;;;;;;6293277;28;20041;-67
2021/12/07 07:41:05;;;;;;;33.20;14.93;;;;;;;;;;6293131;28;20048;-67
2021/12/07 07:44:08;;;;;;;30.55;15.45;;;;;;;;;;6296124;28;20055;-67
2021/12/07 07:47:19;;;;;;;34.08;15.40;;;;;;;;;;6296943;28;20044;-67
2021/12/07 07:50:24;;;;;;;30.75;14.80;;;;;;;;;;6296900;28;20045;-67
2021/12/07 07:53:28;;;;;;;31.27;15.32;;;;;;;;;;6296977;28;20120;-68
2021/12/07 07:56:37;;;;;;;33.38;15.88;;;;;;;;;;6280766;28;20459;-67
2021/12/07 07:59:40;;;;;;;31.13;15.05;;;;;;;;;;6296747;28;20364;-68
2021/12/07 08:02:44;;;;;;;31.70;15.68;;;;;;;;;;6297746;28;20033;-66
2021/12/07 08:05:49;;;;;;;36.08;16.50;;;;;;;;;;6297243;28;20044;-67
2021/12/07 08:08:58;;;;;;;30.77;15.38;;;;;;;;;;6297722;28;20048;-67
2021/12/07 08:12:01;;;;;;;32.03;14.82;;;;;;;;;;6297672;28;20059;-67
2021/12/07 08:15:06;;;;;;;28.52;14.65;;;;;;;;;;6297815;28;20048;-67
2021/12/07 08:18:11;;;;;;;41.00;15.65;;;;;;;;;;6297606;28;20080;-68
2021/12/07 08:21:16;;;;;;;28.77;14.25;;;;;;;;;;6296015;28;20048;-67
2021/12/07 08:24:20;;;;;;;31.77;16.92;;;;;;;;;;6296150;28;20056;-67
2021/12/07 08:27:23;;;;;;;29.95;14.50;;;;;;;;;;6284889;28;20051;-67
2021/12/07 08:30:31;;;;;;;29.13;15.05;;;;;;;;;;6272604;28;20044;-66
2021/12/07 08:33:35;;;;;;;32.67;15.13;;;;;;;;;;6290081;28;20104;-65
2021/12/07 08:36:41;;;;;;;32.03;15.60;;;;;;;;;;6289813;28;20055;-67
2021/12/07 08:39:44;;;;;;;31.17;16.02;;;;;;;;;;6288624;28;20158;-67
2021/12/07 08:42:50;;;;;;;34.40;15.63;;;;;;;;;;6289301;28;20479;-67
2021/12/07 08:45:54;;;;;;;31.40;15.55;;;;;;;;;;6289741;28;20047;-66
2021/12/07 08:48:57;;;;;;;33.00;15.48;;;;;;;;;;6289800;28;20078;-67
2021/12/07 08:52:03;;;;;;;61.90;29.80;;;;;;;;;;6289189;28;20041;-68
2021/12/07 09:01:50;;;;;;;28.73;14.93;;;;;;;;;;6290541;28;20094;-67
2021/12/07 09:04:54;;;;;;;32.55;15.82;;;;;;;;;;6289768;28;20127;-67
2021/12/07 09:07:59;;;;;;;29.17;14.82;;;;;;;;;;6289183;28;20047;-68
2021/12/07 09:11:03;;;;;;;30.27;15.45;;;;;;;;;;6288217;28;20605;-67
2021/12/07 09:14:06;;;;;;;34.10;16.05;;;;;;;;;;6288584;28;20589;-67
2021/12/07 09:17:13;;;;;;;28.48;15.38;;;;;;;;;;6287866;28;20128;-68
2021/12/07 09:20:16;;;;;;;33.17;16.08;;;;;;;;;;6288732;28;20051;-66
2021/12/07 09:23:21;;;;;;;35.85;16.25;;;;;;;;;;6287887;28;20067;-67
2021/12/07 09:26:24;;;;;;;87.78;39.90;;;;;;;;;;6287502;28;20048;-67
2021/12/07 09:29:28;;;;;;;30.67;15.15;;;;;;;;;;6286782;28;20044;-67
2021/12/07 09:32:33;;;;;;;31.42;15.73;;;;;;;;;;6286149;28;20107;-67
2021/12/07 09:35:37;;;;;;;28.65;14.15;;;;;;;;;;6287686;28;20048;-68
2021/12/07 09:38:42;;;;;;;32.83;14.82;;;;;;;;;;6287873;28;20068;-67
2021/12/07 09:41:46;;;;;;;32.95;14.60;;;;;;;;;;6287752;28;20530;-67
2021/12/07 09:44:51;;;;;;;30.90;14.02;;;;;;;;;;6285757;28;20056;-66
2021/12/07 09:47:56;;;;;;;30.00;14.65;;;;;;;;;;6268962;28;20055;-68
2021/12/07 09:51:00;;;;;;;26.00;14.07;;;;;;;;;;6286276;28;20056;-67
2021/12/07 09:54:08;;;;;;;32.58;15.07;;;;;;;;;;6287701;28;20482;-67
2021/12/07 09:57:12;;;;;;;31.40;15.80;;;;;;;;;;6286590;28;20040;-67
2021/12/07 10:00:17;;;;;;;31.08;15.15;;;;;;;;;;6286164;28;20045;-67
2021/12/07 10:03:23;;;;;;;32.10;14.40;;;;;;;;;;6286155;28;20048;-68
2021/12/07 10:06:27;;;;;;;30.77;14.48;;;;;;;;;;6283837;28;20044;-67
2021/12/07 10:09:34;;;;;;;29.80;14.00;;;;;;;;;;6284990;28;20445;-67
2021/12/07 10:12:37;;;;;;;26.42;14.00;;;;;;;;;;6285861;28;20426;-67
2021/12/07 10:15:41;;;;;;;27.35;14.07;;;;;;;;;;6285529;28;20402;-67
2021/12/07 10:18:46;;;;;;;30.42;14.30;;;;;;;;;;6287055;28;20131;-66
2021/12/07 10:21:59;;;;;;;29.85;14.00;;;;;;;;;;6286051;28;20352;-67
2021/12/07 10:25:04;;;;;;;31.27;13.82;;;;;;;;;;6287041;28;20139;-67
2021/12/07 10:28:24;;;;;;;28.58;14.90;;;;;;;;;;6286567;28;20048;-67
2021/12/07 10:31:29;;;;;;;27.88;13.52;;;;;;;;;;6285575;28;20549;-67
2021/12/07 10:34:36;;;;;;;26.73;14.23;;;;;;;;;;6270831;28;20051;-67
2021/12/07 10:37:39;;;;;;;28.67;13.85;;;;;;;;;;6287012;28;20048;-67
2021/12/07 10:40:58;;;;;;;30.45;14.10;;;;;;;;;;6284732;28;20150;-66
2021/12/07 10:44:02;;;;;;;44.42;21.77;;;;;;;;;;6286099;28;20499;-68
2021/12/07 10:47:07;;;;;;;29.60;14.85;;;;;;;;;;6286122;28;20051;-67
2021/12/07 10:50:15;;;;;;;27.23;13.40;;;;;;;;;;6285547;28;20053;-66
2021/12/07 10:53:19;;;;;;;29.90;14.35;;;;;;;;;;6285568;28;20360;-67
2021/12/07 10:56:33;;;;;;;28.85;14.43;;;;;;;;;;6283463;28;20593;-67
2021/12/07 10:59:40;;;;;;;27.55;14.05;;;;;;;;;;6285566;28;20124;-67
2021/12/07 11:02:44;;;;;;;29.05;14.23;;;;;;;;;;6285479;28;20075;-67
2021/12/07 11:05:50;;;;;;;27.80;13.52;;;;;;;;;;6285316;28;20055;-67
2021/12/07 11:08:56;;;;;;;29.77;14.00;;;;;;;;;;6285835;28;20044;-67
2021/12/07 11:12:07;;;;;;;32.72;14.90;;;;;;;;;;6285735;28;20043;-67
2021/12/07 11:15:18;;;;;;;29.10;13.82;;;;;;;;;;6286097;28;20051;-67
2021/12/07 11:18:23;;;;;;;27.55;13.65;;;;;;;;;;6285361;28;20093;-68
2021/12/07 11:21:31;;;;;;;32.67;15.87;;;;;;;;;;6286076;28;20052;-67
2021/12/07 11:24:35;;;;;;;30.60;15.23;;;;;;;;;;6270663;28;20304;-68
2021/12/07 11:31:11;;;;;;;32.22;15.73;;;;;;;;;;6284161;28;20045;-67
2021/12/07 11:34:16;;;;;;;30.38;15.52;;;;;;;;;;6283953;28;20041;-68
2021/12/07 11:37:22;;;;;;;32.15;15.93;;;;;;;;;;6285616;28;20052;-67
2021/12/07 11:40:25;;;;;;;;;;;;;;;;;;6284432;28;20064;-68
2021/12/07 11:43:30;;;;;;;30.90;17.13;;;;;;;;;;6285329;28;20317;-68
2021/12/07 11:46:35;;;;;;;34.03;17.05;;;;;;;;;;6285500;28;20056;-67
2021/12/07 11:49:39;;;;;;;36.20;18.08;;;;;;;;;;6284574;28;20491;-67
2021/12/07 11:52:42;;;;;;;37.47;18.88;;;;;;;;;;6285202;28;20048;-67
2021/12/07 11:55:48;;;;;;;32.35;17.88;;;;;;;;;;6284113;28;20051;-67
2021/12/07 11:58:51;;;;;;;;;;;;;;;;;;6285820;28;20047;-67
2021/12/07 12:02:18;;;;;;;35.03;18.45;;;;;;;;;;6283183;28;19925;-67
2021/12/07 12:05:22;;;;;;;34.53;17.92;;;;;;;;;;6284827;28;20045;-67
2021/12/07 12:08:25;;;;;;;36.08;18.55;;;;;;;;;;6285630;28;20067;-67
2021/12/07 12:11:32;;;;;;;34.45;19.23;;;;;;;;;;6285208;28;20037;-68
2021/12/07 12:14:51;;;;;;;35.53;17.63;;;;;;;;;;6285485;28;20375;-67
2021/12/07 12:18:00;;;;;;;94.40;48.13;;;;;;;;;;6285328;28;20530;-67
2021/12/07 12:21:10;;;;;;;40.50;20.67;;;;;;;;;;6283829;28;20044;-67
2021/12/07 12:24:18;;;;;;;40.60;20.00;;;;;;;;;;6285411;28;20090;-67
2021/12/07 12:27:23;;;;;;;36.95;19.60;;;;;;;;;;6283940;28;20128;-67
2021/12/07 12:30:28;;;;;;;36.22;19.92;;;;;;;;;;6288769;28;20044;-67
2021/12/07 12:33:46;;;;;;;37.13;20.48;;;;;;;;;;6287021;28;20292;-67
2021/12/07 12:36:56;;;;;;;38.53;18.50;;;;;;;;;;6289395;28;20040;-68
2021/12/07 12:40:00;;;;;;;39.85;20.58;;;;;;;;;;6294578;28;20044;-67
2021/12/07 12:43:04;;;;;;;39.33;19.35;;;;;;;;;;6293209;28;20049;-66
2021/12/07 12:46:07;;;;;;;40.85;19.92;;;;;;;;;;6294243;28;20048;-67
2021/12/07 12:49:12;;;;;;;40.38;20.00;;;;;;;;;;6293113;28;20059;-67
2021/12/07 12:52:15;;;;;;;38.50;19.53;;;;;;;;;;6293819;28;20056;-67
2021/12/07 12:55:34;;;;;;;44.05;19.38;;;;;;;;;;6294075;28;20052;-67
2021/12/07 12:58:42;;;;;;;36.08;19.40;;;;;;;;;;6294700;28;20048;-66
2021/12/07 13:01:46;;;;;;;39.10;19.00;;;;;;;;;;6292947;28;20053;-66
2021/12/07 13:05:04;;;;;;;38.47;19.95;;;;;;;;;;6291016;28;20154;-66
2021/12/07 13:08:15;;;;;;;42.50;19.27;;;;;;;;;;6294239;28;20053;-67
2021/12/07 13:11:31;;;;;;;38.92;19.98;;;;;;;;;;6294694;28;20040;-66
2021/12/07 13:14:39;;;;;;;41.95;19.55;;;;;;;;;;6292337;28;20117;-66
2021/12/07 13:17:44;;;;;;;34.22;18.58;;;;;;;;;;6294893;28;20048;-66
2021/12/07 13:20:50;;;;;;;39.40;19.70;;;;;;;;;;6295133;28;20062;-66
2021/12/07 13:23:58;;;;;;;41.60;19.65;;;;;;;;;;6288768;28;20045;-66
2021/12/07 13:27:09;;;;;;;36.83;19.23;;;;;;;;;;6289702;28;20078;-66
2021/12/07 13:30:13;;;;;;;40.33;19.88;;;;;;;;;;6289320;28;20044;-66
2021/12/07 13:33:17;;;;;;;36.92;18.52;;;;;;;;;;6289833;28;20048;-67
2021/12/07 13:36:33;;;;;;;38.78;18.42;;;;;;;;;;6290106;28;20060;-66
2021/12/07 13:39:38;;;;;;;34.95;18.02;;;;;;;;;;6294096;28;20082;-67
2021/12/07 13:42:47;;;;;;;43.75;19.27;;;;;;;;;;6294342;28;20055;-67
2021/12/07 13:45:50;;;;;;;41.45;19.23;;;;;;;;;;6294591;28;20041;-67
2021/12/07 13:49:02;;;;;;;36.55;17.60;;;;;;;;;;6293022;28;20075;-66
2021/12/07 13:52:10;;;;;;;44.63;19.52;;;;;;;;;;6289908;28;20052;-67
2021/12/07 13:55:16;;;;;;;38.25;18.70;;;;;;;;;;6291933;28;20075;-66
2021/12/07 13:58:20;;;;;;;45.85;19.92;;;;;;;;;;6292108;28;20049;-66
2021/12/07 14:01:23;;;;;;;39.95;19.60;;;;;;;;;;6293882;28;20040;-66
2021/12/07 14:04:28;;;;;;;40.25;18.98;;;;;;;;;;6293337;28;20518;-66
2021/12/07 14:07:33;;;;;;;38.97;20.25;;;;;;;;;;6292339;28;20117;-67
2021/12/07 14:10:37;;;;;;;37.92;18.42;;;;;;;;;;6293457;28;20056;-66
2021/12/07 14:13:41;;;;;;;38.72;18.48;;;;;;;;;;6293259;28;20044;-66
2021/12/07 14:16:45;;;;;;;41.65;19.42;;;;;;;;;;6275273;28;20424;-66
2021/12/07 14:19:50;;;;;;;45.08;20.10;;;;;;;;;;6293296;28;20482;-67
2021/12/07 14:22:55;;;;;;;43.30;19.85;;;;;;;;;;6275402;28;20060;-66
2021/12/07 14:26:01;;;;;;;40.08;19.40;;;;;;;;;;6291485;28;20044;-66
2021/12/07 14:29:12;;;;;;;40.63;19.60;;;;;;;;;;6291753;28;20044;-66
2021/12/07 14:32:15;;;;;;;39.97;20.20;;;;;;;;;;6291688;28;20040;-66
2021/12/07 14:35:21;;;;;;;45.47;20.63;;;;;;;;;;6292639;28;20067;-66
2021/12/07 14:38:29;;;;;;;37.78;18.85;;;;;;;;;;6291599;28;20053;-67
2021/12/07 14:41:42;;;;;;;40.42;20.33;;;;;;;;;;6292662;28;20415;-66
2021/12/07 14:44:47;;;;;;;45.78;20.20;;;;;;;;;;6293089;28;20045;-66
2021/12/07 14:47:50;;;;;;;44.13;19.58;;;;;;;;;;6291076;28;20040;-66
2021/12/07 14:51:16;;;;;;;42.67;20.60;;;;;;;;;;6292437;28;20052;-66
2021/12/07 14:54:21;;;;;;;42.70;20.17;;;;;;;;;;6292547;28;20059;-66
2021/12/07 14:57:24;;;;;;;41.88;20.00;;;;;;;;;;6292673;28;20048;-67
2021/12/07 15:00:28;;;;;;;44.80;20.52;;;;;;;;;;6292372;28;20056;-66
2021/12/07 15:03:35;;;;;;;40.70;19.73;;;;;;;;;;6291063;28;20044;-66
2021/12/07 15:06:41;;;;;;;40.45;18.92;;;;;;;;;;6292635;28;20048;-66
2021/12/07 15:09:45;;;;;;;39.80;17.92;;;;;;;;;;6290893;28;20040;-67
2021/12/07 15:12:53;;;;;;;40.58;19.15;;;;;;;;;;6291116;28;20104;-66
2021/12/07 15:15:57;;;;;;;41.28;18.10;;;;;;;;;;6290994;28;20127;-66
2021/12/07 15:19:01;;;;;;;50.05;19.83;;;;;;;;;;6292686;28;20067;-66
2021/12/07 15:22:07;;;;;;;43.88;18.73;;;;;;;;;;6291842;28;20053;-66
2021/12/07 15:25:14;;;;;;;43.15;20.23;;;;;;;;;;6292178;28;20053;-66
2021/12/07 15:28:18;;;;;;;43.33;18.85;;;;;;;;;;6290912;28;20057;-67
2021/12/07 15:31:21;;;;;;;44.47;19.90;;;;;;;;;;6290620;28;20049;-67
2021/12/07 15:34:32;;;;;;;47.97;20.55;;;;;;;;;;6290842;28;20074;-67
2021/12/07 15:37:41;;;;;;;43.67;19.10;;;;;;;;;;6291997;28;20113;-67
2021/12/07 15:40:46;;;;;;;44.25;20.08;;;;;;;;;;6273814;28;20418;-67
2021/12/07 15:43:51;;;;;;;48.78;19.17;;;;;;;;;;6291394;28;20056;-67
2021/12/07 15:46:57;;;;;;;46.08;20.65;;;;;;;;;;6291917;28;20040;-68
2021/12/07 15:50:01;;;;;;;42.80;19.80;;;;;;;;;;6290609;28;20132;-68
2021/12/07 15:53:06;;;;;;;42.03;18.42;;;;;;;;;;6290388;28;20052;-67
2021/12/07 15:56:17;;;;;;;41.05;18.75;;;;;;;;;;6291902;28;20052;-68
2021/12/07 15:59:20;;;;;;;37.50;18.63;;;;;;;;;;6290587;28;20098;-67
2021/12/07 16:02:26;;;;;;;42.28;20.08;;;;;;;;;;6289931;28;20087;-67
2021/12/07 16:05:34;;;;;;;46.80;20.05;;;;;;;;;;6295201;28;20040;-67
2021/12/07 16:08:38;;;;;;;;;;;;;;;;;;6297175;28;20050;-67
2021/12/07 16:11:43;;;;;;;41.88;18.70;;;;;;;;;;6296750;28;19920;-67
2021/12/07 16:14:47;;;;;;;44.40;21.15;;;;;;;;;;6296349;28;20512;-67
2021/12/07 16:17:54;;;;;;;42.55;19.20;;;;;;;;;;6295091;28;20096;-66
2021/12/07 16:21:01;;;;;;;45.45;19.83;;;;;;;;;;6296162;28;20079;-66
2021/12/07 16:24:07;;;;;;;41.95;19.50;;;;;;;;;;6296725;28;20060;-66
2021/12/07 16:27:14;;;;;;;45.40;20.00;;;;;;;;;;6295112;28;20052;-66
2021/12/07 16:30:18;;;;;;;47.40;20.88;;;;;;;;;;6296163;28;20415;-66
2021/12/07 16:33:21;;;;;;;44.75;20.33;;;;;;;;;;6296193;28;20048;-66
2021/12/07 16:36:25;;;;;;;43.83;20.48;;;;;;;;;;6295553;28;20063;-66
2021/12/07 16:39:28;;;;;;;45.15;19.40;;;;;;;;;;6295777;28;20059;-66
2021/12/07 16:42:33;;;;;;;44.95;20.63;;;;;;;;;;6294675;28;20052;-66
2021/12/07 16:45:38;;;;;;;48.10;21.38;;;;;;;;;;6295601;28;20048;-66
2021/12/07 16:48:44;;;;;;;52.45;23.58;;;;;;;;;;6295624;28;20048;-67
2021/12/07 16:51:47;;;;;;;50.90;21.27;;;;;;;;;;6294093;28;20045;-67
2021/12/07 16:54:56;;;;;;;48.90;22.05;;;;;;;;;;6294353;28;20051;-66
2021/12/07 16:58:01;;;;;;;43.70;20.42;;;;;;;;;;6295239;28;20372;-66
2021/12/07 17:01:04;;;;;;;49.15;21.85;;;;;;;;;;6294122;28;20040;-67
2021/12/07 17:04:10;;;;;;;46.17;20.50;;;;;;;;;;6294116;28;20056;-66
2021/12/07 17:07:13;;;;;;;46.87;19.60;;;;;;;;;;6295357;28;20051;-65
2021/12/07 17:10:17;;;;;;;47.78;21.02;;;;;;;;;;6295001;28;20102;-66
2021/12/07 17:13:22;;;;;;;50.75;21.25;;;;;;;;;;6295012;28;20068;-66
2021/12/07 17:16:26;;;;;;;48.92;21.90;;;;;;;;;;6293639;28;20082;-67
2021/12/07 17:19:30;;;;;;;49.22;20.60;;;;;;;;;;6293588;28;20051;-67
2021/12/07 17:22:33;;;;;;;49.15;21.00;;;;;;;;;;6294734;28;20055;-66
2021/12/07 17:25:36;;;;;;;51.60;21.42;;;;;;;;;;6295163;28;20121;-66
2021/12/07 17:28:41;;;;;;;46.97;22.08;;;;;;;;;;6293236;28;20089;-66
2021/12/07 17:31:44;;;;;;;48.45;21.38;;;;;;;;;;6294679;28;20159;-67
2021/12/07 17:34:48;;;;;;;47.22;21.20;;;;;;;;;;6293521;28;20521;-66
2021/12/07 17:37:51;;;;;;;49.85;21.60;;;;;;;;;;6293108;28;20055;-66
2021/12/07 17:40:54;;;;;;;48.88;20.83;;;;;;;;;;6294210;28;20054;-66
2021/12/07 17:43:59;;;;;;;43.83;20.13;;;;;;;;;;6293530;28;20060;-66
2021/12/07 17:47:05;;;;;;;44.50;20.17;;;;;;;;;;6294745;28;20048;-66
2021/12/07 17:50:09;;;;;;;45.88;20.08;;;;;;;;;;6293857;28;20048;-67
2021/12/07 17:53:14;;;;;;;45.72;20.67;;;;;;;;;;6292642;28;20572;-66
2021/12/07 17:56:17;;;;;;;41.13;19.77;;;;;;;;;;6294172;28;20128;-67
2021/12/07 17:59:22;;;;;;;45.65;19.88;;;;;;;;;;6294239;28;20049;-67
2021/12/07 18:02:25;;;;;;;49.50;21.05;;;;;;;;;;6294116;28;20049;-66
2021/12/07 18:05:31;;;;;;;47.00;21.02;;;;;;;;;;6293912;28;20118;-66
2021/12/07 18:08:37;;;;;;;44.80;20.45;;;;;;;;;;6294215;28;20055;-67
2021/12/07 18:11:41;;;;;;;47.08;21.25;;;;;;;;;;6292369;28;20056;-67
2021/12/07 18:14:48;;;;;;;47.67;21.17;;;;;;;;;;6293791;28;20048;-67
2021/12/07 18:17:52;;;;;;;46.90;21.73;;;;;;;;;;6276383;28;20114;-66
2021/12/07 18:20:55;;;;;;;52.38;21.90;;;;;;;;;;6293476;28;20072;-67
2021/12/07 18:24:00;;;;;;;46.22;21.23;;;;;;;;;;6292065;28;20056;-67
2021/12/07 18:27:03;;;;;;;48.10;20.70;;;;;;;;;;6291308;28;20061;-67
2021/12/07 18:30:10;;;;;;;54.55;21.20;;;;;;;;;;6292042;28;20388;-67
2021/12/07 18:33:15;;;;;;;46.10;19.98;;;;;;;;;;6292052;28;20055;-67
2021/12/07 18:36:19;;;;;;;46.05;20.52;;;;;;;;;;6293264;28;20058;-67
2021/12/07 18:39:22;;;;;;;45.15;19.95;;;;;;;;;;6293190;28;20133;-67
2021/12/07 18:42:26;;;;;;;48.20;19.75;;;;;;;;;;6292896;28;20047;-66
2021/12/07 18:45:30;;;;;;;48.50;21.15;;;;;;;;;;6291524;28;20087;-67
2021/12/07 18:48:36;;;;;;;50.35;22.88;;;;;;;;;;6292824;28;20055;-67
2021/12/07 18:51:42;;;;;;;44.75;19.77;;;;;;;;;;6293036;28;20047;-67
2021/12/07 18:54:47;;;;;;;44.28;19.95;;;;;;;;;;6291573;28;20052;-67
2021/12/07 18:57:52;;;;;;;46.13;19.65;;;;;;;;;;6291358;28;20040;-67
2021/12/07 19:00:57;;;;;;;50.47;23.40;;;;;;;;;;6291751;28;20044;-66
2021/12/07 19:04:01;;;;;;;50.33;21.20;;;;;;;;;;6292519;28;20040;-66
2021/12/07 19:07:04;;;;;;;46.03;20.13;;;;;;;;;;6291078;28;20411;-66
2021/12/07 19:10:09;;;;;;;47.08;20.77;;;;;;;;;;6292524;28;20053;-65
2021/12/07 19:13:13;;;;;;;50.97;21.17;;;;;;;;;;6292562;28;20052;-67
2021/12/07 19:16:17;;;;;;;46.00;21.20;;;;;;;;;;6291123;28;20052;-67
2021/12/07 19:19:21;;;;;;;51.15;22.50;;;;;;;;;;6291071;28;20051;-67
2021/12/07 19:22:24;;;;;;;49.00;23.00;;;;;;;;;;6292143;28;20130;-67